createdAt,value
2022-11-07T00:00:19.307Z,17.91
2022-11-07T00:05:12.187Z,17.91
2022-11-07T00:10:05.530Z,17.90
2022-11-07T00:15:00.576Z,17.76
2022-11-07T00:19:54.564Z,17.79
2022-11-07T00:24:47.649Z,17.88
2022-11-07T00:29:41.695Z,17.87
2022-11-07T00:34:35.710Z,17.85
2022-11-07T00:39:29.124Z,17.82
2022-11-07T00:44:23.550Z,17.83
2022-11-07T00:49:16.764Z,17.80
2022-11-07T00:54:10.325Z,17.81
2022-11-07T00:59:03.427Z,17.77
2022-11-07T01:04:15.961Z,17.76
2022-11-07T01:09:11.138Z,17.76
2022-11-07T01:14:09.064Z,17.62
2022-11-07T01:19:04.561Z,17.63
2022-11-07T01:23:58.846Z,17.66
2022-11-07T01:28:52.191Z,17.77
2022-11-07T01:33:46.346Z,17.73
2022-11-07T01:38:41.582Z,17.75
2022-11-07T01:43:56.649Z,17.68
2022-11-07T01:49:06.564Z,17.72
2022-11-07T01:54:01.370Z,17.56
2022-11-07T01:59:16.725Z,17.70
2022-11-07T02:04:10.733Z,17.45
2022-11-07T02:09:03.885Z,17.66
2022-11-07T02:13:56.901Z,17.64
2022-11-07T02:18:50.618Z,17.51
2022-11-07T02:23:54.237Z,17.63
2022-11-07T02:28:49.350Z,17.50
2022-11-07T02:33:46.382Z,17.61
2022-11-07T02:38:39.558Z,17.62
2022-11-07T02:43:34.644Z,17.61
2022-11-07T02:48:31.874Z,17.47
2022-11-07T02:53:25.495Z,17.48
2022-11-07T02:58:19.037Z,17.51
2022-11-07T03:03:13.681Z,17.59
2022-11-07T03:08:07.423Z,17.35
2022-11-07T03:13:00.070Z,17.57
2022-11-07T03:17:53.870Z,17.60
2022-11-07T03:22:51.656Z,17.60
2022-11-07T03:27:51.903Z,17.59
2022-11-07T03:32:44.865Z,17.57
2022-11-07T03:37:38.497Z,17.59
2022-11-07T03:42:32.244Z,17.58
2022-11-07T03:47:26.074Z,17.53
2022-11-07T03:52:20.326Z,17.41
2022-11-07T03:57:13.191Z,17.53
2022-11-07T04:02:07.183Z,17.50
2022-11-07T04:07:00.671Z,17.35
2022-11-07T04:12:11.764Z,17.46
2022-11-07T04:17:21.512Z,17.45
2022-11-07T04:22:15.201Z,17.34
2022-11-07T04:27:31.458Z,17.43
2022-11-07T04:32:26.033Z,17.35
2022-11-07T04:37:19.936Z,17.29
2022-11-07T04:42:14.207Z,17.34
2022-11-07T04:47:07.869Z,17.40
2022-11-07T04:52:01.410Z,17.31
2022-11-07T04:56:55.454Z,17.42
2022-11-07T05:01:50.738Z,17.42
2022-11-07T05:06:44.008Z,17.42
2022-11-07T05:11:37.919Z,17.37
2022-11-07T05:16:33.758Z,17.26
2022-11-07T05:21:27.082Z,17.37
2022-11-07T05:26:20.199Z,17.22
2022-11-07T05:31:17.095Z,17.29
2022-11-07T05:36:36.828Z,17.31
2022-11-07T05:41:29.744Z,17.32
2022-11-07T05:46:22.787Z,17.31
2022-11-07T05:51:17.222Z,17.16
2022-11-07T05:56:11.615Z,17.28
2022-11-07T06:01:06.886Z,17.26
2022-11-07T06:06:00.393Z,17.16
2022-11-07T06:10:54.403Z,17.30
2022-11-07T06:15:47.842Z,17.30
2022-11-07T06:20:41.297Z,17.29
2022-11-07T06:25:35.750Z,17.12
2022-11-07T06:30:29.246Z,17.15
2022-11-07T06:35:23.777Z,17.22
2022-11-07T06:40:18.143Z,17.17
2022-11-07T06:45:11.943Z,17.13
2022-11-07T06:50:07.865Z,17.08
2022-11-07T06:55:00.850Z,17.06
2022-11-07T06:59:53.815Z,17.19
2022-11-07T07:04:49.922Z,16.95
2022-11-07T07:09:44.067Z,16.96
2022-11-07T07:14:37.985Z,16.98
2022-11-07T07:19:32.204Z,16.83
2022-11-07T07:24:24.416Z,16.95
2022-11-07T07:29:18.191Z,16.90
2022-11-07T07:34:12.648Z,17.00
2022-11-07T07:39:10.161Z,17.04
2022-11-07T07:44:04.062Z,16.90
2022-11-07T07:48:58.338Z,17.02
2022-11-07T07:53:52.430Z,17.07
2022-11-07T07:58:47.169Z,17.05
2022-11-07T08:04:00.210Z,17.08
2022-11-07T08:08:54.577Z,17.03
2022-11-07T08:13:48.991Z,17.02
2022-11-07T08:18:43.118Z,16.87
2022-11-07T08:23:36.890Z,17.10
2022-11-07T08:28:32.069Z,16.99
2022-11-07T08:33:25.871Z,17.13
2022-11-07T08:38:19.205Z,17.13
2022-11-07T08:43:13.038Z,17.14
2022-11-07T08:48:07.002Z,17.05
2022-11-07T08:53:03.008Z,17.11
2022-11-07T08:58:04.108Z,17.13
2022-11-07T09:03:24.309Z,17.06
2022-11-07T09:08:10.736Z,17.06
2022-11-07T09:13:04.520Z,17.17
2022-11-07T09:18:03.455Z,17.19
2022-11-07T09:22:57.794Z,17.25
2022-11-07T09:27:52.307Z,17.31
2022-11-07T09:32:46.725Z,17.18
2022-11-07T09:37:40.802Z,17.19
2022-11-07T09:43:02.368Z,17.36
2022-11-07T09:48:00.595Z,17.34
2022-11-07T09:53:01.552Z,17.28
2022-11-07T09:58:30.183Z,17.27
2022-11-07T10:03:23.665Z,17.16
2022-11-07T10:08:40.002Z,17.29
2022-11-07T10:13:51.435Z,17.36
2022-11-07T10:19:00.063Z,17.29
2022-11-07T10:24:06.920Z,17.15
2022-11-07T10:29:04.452Z,17.30
2022-11-07T10:34:02.752Z,17.19
2022-11-07T10:38:56.858Z,17.03
2022-11-07T10:43:53.830Z,17.15
2022-11-07T10:48:52.798Z,17.31
2022-11-07T10:53:46.099Z,17.29
2022-11-07T10:58:45.940Z,17.18
2022-11-07T11:03:48.288Z,17.32
2022-11-07T11:08:41.901Z,17.29
2022-11-07T11:13:35.093Z,17.17
2022-11-07T11:18:27.943Z,17.27
2022-11-07T11:23:25.055Z,17.23
2022-11-07T11:28:44.543Z,17.36
2022-11-07T11:33:44.453Z,17.34
2022-11-07T11:38:37.982Z,17.39
2022-11-07T11:43:42.559Z,17.26
2022-11-07T11:48:42.065Z,17.44
2022-11-07T11:53:54.401Z,17.23
2022-11-07T11:58:59.619Z,17.40
2022-11-07T12:04:05.432Z,17.29
2022-11-07T12:09:24.225Z,17.30
2022-11-07T12:14:41.796Z,17.48
2022-11-07T12:19:37.855Z,17.51
2022-11-07T12:24:58.493Z,17.55
2022-11-07T12:30:17.382Z,17.65
2022-11-07T12:35:16.450Z,17.73
2022-11-07T12:40:30.244Z,17.66
2022-11-07T12:45:22.574Z,17.64
2022-11-07T12:51:04.782Z,17.60
2022-11-07T12:56:03.008Z,17.63
2022-11-07T13:00:57.858Z,17.64
2022-11-07T13:06:19.212Z,17.65
2022-11-07T13:11:29.655Z,17.54
2022-11-07T13:16:29.983Z,17.67
2022-11-07T13:21:23.761Z,17.67
2022-11-07T13:26:54.075Z,17.53
2022-11-07T13:31:44.363Z,17.66
2022-11-07T13:36:39.304Z,17.56
2022-11-07T13:41:34.046Z,17.53
2022-11-07T13:46:50.307Z,17.67
2022-11-07T13:51:47.243Z,17.70
2022-11-07T13:56:47.871Z,17.72
2022-11-07T14:01:44.898Z,17.47
2022-11-07T14:06:38.470Z,17.73
2022-11-07T14:11:35.876Z,17.72
2022-11-07T14:16:32.831Z,17.56
2022-11-07T14:21:31.562Z,17.79
2022-11-07T14:26:28.587Z,17.75
2022-11-07T14:31:31.156Z,17.80
2022-11-07T14:36:24.868Z,17.83
2022-11-07T14:41:18.577Z,17.85
2022-11-07T14:46:19.391Z,17.76
2022-11-07T14:51:18.400Z,17.74
2022-11-07T14:56:17.296Z,17.90
2022-11-07T15:01:22.948Z,17.75
2022-11-07T15:06:29.125Z,17.80
2022-11-07T15:11:29.703Z,17.84
2022-11-07T15:16:23.717Z,17.93
2022-11-07T15:21:37.194Z,17.95
2022-11-07T15:26:35.532Z,18.03
2022-11-07T15:31:31.745Z,17.99
2022-11-07T15:36:27.462Z,17.92
2022-11-07T15:41:21.316Z,18.02
2022-11-07T15:46:38.055Z,18.09
2022-11-07T15:51:32.228Z,18.10
2022-11-07T15:56:26.693Z,18.16
2022-11-07T16:01:19.383Z,18.19
2022-11-07T16:06:17.489Z,18.25
2022-11-07T16:11:11.969Z,18.27
2022-11-07T16:16:07.233Z,18.21
2022-11-07T16:21:02.594Z,18.30
2022-11-07T16:25:55.787Z,18.34
2022-11-07T16:30:49.195Z,18.26
2022-11-07T16:35:43.683Z,18.28
2022-11-07T16:40:37.246Z,18.19
2022-11-07T16:45:30.637Z,18.30
2022-11-07T16:50:24.510Z,18.39
2022-11-07T16:55:20.291Z,18.50
2022-11-07T17:00:21.827Z,18.34
2022-11-07T17:05:15.232Z,18.37
2022-11-07T17:10:08.119Z,18.37
2022-11-07T17:15:01.630Z,18.43
2022-11-07T17:19:55.460Z,18.55
2022-11-07T17:24:50.074Z,18.53
2022-11-07T17:29:43.535Z,18.58
2022-11-07T17:34:36.514Z,18.60
2022-11-07T17:39:30.239Z,18.52
2022-11-07T17:44:24.318Z,18.49
2022-11-07T17:49:19.453Z,18.61
2022-11-07T17:54:15.009Z,18.65
2022-11-07T17:59:28.480Z,18.67
2022-11-07T18:04:22.803Z,18.65
2022-11-07T18:09:16.703Z,18.66
2022-11-07T18:14:12.974Z,18.66
2022-11-07T18:19:07.111Z,18.75
2022-11-07T18:23:59.699Z,18.81
2022-11-07T18:28:57.416Z,18.63
2022-11-07T18:33:54.174Z,18.51
2022-11-07T18:38:54.402Z,18.52
2022-11-07T18:43:49.215Z,18.74
2022-11-07T18:48:42.719Z,18.66
2022-11-07T18:53:36.258Z,18.68
2022-11-07T18:58:30.789Z,18.74
2022-11-07T19:03:24.577Z,18.78
2022-11-07T19:08:18.755Z,18.81
2022-11-07T19:13:11.980Z,18.78
2022-11-07T19:18:04.977Z,18.76
2022-11-07T19:22:58.622Z,18.72
2022-11-07T19:27:52.131Z,18.78
2022-11-07T19:32:46.257Z,18.78
2022-11-07T19:37:38.835Z,18.72
2022-11-07T19:42:32.125Z,18.86
2022-11-07T19:47:25.230Z,18.85
2022-11-07T19:52:19.204Z,18.86
2022-11-07T19:57:12.449Z,18.78
2022-11-07T20:02:31.890Z,18.77
2022-11-07T20:07:24.606Z,18.75
2022-11-07T20:12:17.827Z,18.82
2022-11-07T20:17:11.266Z,18.86
2022-11-07T20:22:09.153Z,18.73
2022-11-07T20:27:04.318Z,18.87
2022-11-07T20:31:58.175Z,18.81
2022-11-07T20:36:54.465Z,18.89
2022-11-07T20:41:47.937Z,18.79
2022-11-07T20:46:44.214Z,18.91
2022-11-07T20:51:37.990Z,18.89
2022-11-07T20:56:32.721Z,18.90
2022-11-07T21:01:37.162Z,18.92
2022-11-07T21:06:32.097Z,18.94
2022-11-07T21:11:28.090Z,18.95
2022-11-07T21:16:23.512Z,18.93
2022-11-07T21:21:25.825Z,18.91
2022-11-07T21:26:24.834Z,18.86
2022-11-07T21:31:24.305Z,18.97
2022-11-07T21:36:19.940Z,18.95
2022-11-07T21:41:18.884Z,18.96
2022-11-07T21:46:17.473Z,18.98
2022-11-07T21:51:19.555Z,18.97
2022-11-07T21:56:38.052Z,18.95
2022-11-07T22:01:35.217Z,18.84
2022-11-07T22:06:28.711Z,18.98
2022-11-07T22:11:22.944Z,18.99
2022-11-07T22:16:21.232Z,19.00
2022-11-07T22:21:20.875Z,18.96
2022-11-07T22:26:16.510Z,19.02
2022-11-07T22:31:18.153Z,19.01
2022-11-07T22:36:12.292Z,19.04
2022-11-07T22:41:15.667Z,18.94
2022-11-07T22:46:14.094Z,18.95
2022-11-07T22:51:09.543Z,19.07
2022-11-07T22:56:31.394Z,19.10
2022-11-07T23:01:30.307Z,19.06
2022-11-07T23:06:24.477Z,19.04
2022-11-07T23:16:40.550Z,18.82
2022-11-07T23:21:34.307Z,18.91
2022-11-07T23:26:35.466Z,18.98
2022-11-07T23:31:29.088Z,18.95
2022-11-07T23:36:22.980Z,18.93
2022-11-07T23:41:16.908Z,18.99
2022-11-07T23:46:31.610Z,19.04
2022-11-07T23:51:25.247Z,19.02
2022-11-07T23:56:19.214Z,18.85
